createdAt,value
2023-03-13T00:01:29.153Z,98572.47
2023-03-13T00:03:56.308Z,98570.69
2023-03-13T00:06:26.281Z,98566.34
2023-03-13T00:08:54.545Z,98541.75
2023-03-13T00:11:21.329Z,98540.84
2023-03-13T00:13:48.182Z,98534.88
2023-03-13T00:16:16.929Z,98528.09
2023-03-13T00:18:50.060Z,98522.22
2023-03-13T00:21:20.250Z,98517.19
2023-03-13T00:23:47.957Z,98512.22
2023-03-13T00:26:19.139Z,98506.25
2023-03-13T00:28:46.485Z,98510.59
2023-03-13T00:31:17.612Z,98502.22
2023-03-13T00:33:48.489Z,98503.09
2023-03-13T00:36:23.970Z,98495.50
2023-03-13T00:38:52.646Z,98484.50
2023-03-13T00:41:31.738Z,98499.75
2023-03-13T00:43:58.958Z,98493.03
2023-03-13T00:46:29.581Z,98475.28
2023-03-13T00:48:57.578Z,98476.91
2023-03-13T00:51:26.928Z,98475.22
2023-03-13T00:53:55.796Z,98473.53
2023-03-13T00:56:23.199Z,98470.19
2023-03-13T00:58:51.024Z,98457.47
2023-03-13T01:01:24.759Z,98450.66
2023-03-13T01:03:58.060Z,98457.47
2023-03-13T01:06:28.724Z,98454.94
2023-03-13T01:08:56.639Z,98449.84
2023-03-13T01:11:30.309Z,98431.13
2023-03-13T01:14:01.552Z,98431.13
2023-03-13T01:16:31.681Z,98420.94
2023-03-13T01:19:05.879Z,98437.06
2023-03-13T01:21:32.994Z,98428.56
2023-03-13T01:23:59.941Z,98414.03
2023-03-13T01:26:27.715Z,98402.94
2023-03-13T01:28:55.093Z,98406.28
2023-03-13T01:31:29.487Z,98412.97
2023-03-13T01:33:59.506Z,98393.44
2023-03-13T01:36:27.848Z,98407.03
2023-03-13T01:38:58.165Z,98405.38
2023-03-13T01:41:26.641Z,98398.53
2023-03-13T01:43:55.361Z,98392.63
2023-03-13T01:46:25.127Z,98394.22
2023-03-13T01:49:05.103Z,98382.38
2023-03-13T01:51:44.033Z,98374.75
2023-03-13T01:54:52.292Z,98369.75
2023-03-13T01:57:33.075Z,98361.50
2023-03-13T02:00:17.649Z,98350.63
2023-03-13T02:02:50.390Z,98342.25
2023-03-13T02:05:21.263Z,98335.63
2023-03-13T02:07:56.869Z,98333.09
2023-03-13T02:10:25.554Z,98336.56
2023-03-13T02:12:53.771Z,98328.25
2023-03-13T02:15:24.682Z,98321.50
2023-03-13T02:17:52.396Z,98325.84
2023-03-13T02:20:24.144Z,98319.94
2023-03-13T02:23:14.220Z,98317.47
2023-03-13T02:25:50.943Z,98316.59
2023-03-13T02:28:28.573Z,98327.56
2023-03-13T02:30:58.500Z,98324.16
2023-03-13T02:33:35.389Z,98310.59
2023-03-13T02:36:04.261Z,98306.34
2023-03-13T02:38:39.160Z,98294.41
2023-03-13T02:41:07.179Z,98301.16
2023-03-13T02:43:36.994Z,98297.72
2023-03-13T02:46:14.029Z,98284.13
2023-03-13T02:48:45.764Z,98290.03
2023-03-13T02:51:41.440Z,98285.78
2023-03-13T02:54:17.921Z,98250.16
2023-03-13T02:56:49.205Z,98243.28
2023-03-13T02:59:16.302Z,98236.47
2023-03-13T03:01:43.045Z,98244.75
2023-03-13T03:04:09.818Z,98227.78
2023-03-13T03:06:37.141Z,98242.19
2023-03-13T03:09:04.740Z,98233.59
2023-03-13T03:11:31.438Z,98247.97
2023-03-13T03:13:58.186Z,98255.53
2023-03-13T03:16:24.916Z,98253.78
2023-03-13T03:18:51.701Z,98253.72
2023-03-13T03:21:18.452Z,98246.00
2023-03-13T03:23:45.154Z,98253.50
2023-03-13T03:26:11.949Z,98252.50
2023-03-13T03:28:38.664Z,98250.75
2023-03-13T03:31:08.204Z,98241.25
2023-03-13T03:33:35.203Z,98240.31
2023-03-13T03:36:06.590Z,98219.06
2023-03-13T03:38:34.223Z,98224.88
2023-03-13T03:41:01.599Z,98231.56
2023-03-13T03:43:28.403Z,98204.28
2023-03-13T03:45:55.341Z,98205.03
2023-03-13T03:48:22.103Z,98202.41
2023-03-13T03:50:48.906Z,98211.63
2023-03-13T03:53:15.795Z,98203.06
2023-03-13T03:55:42.690Z,98206.34
2023-03-13T03:58:09.417Z,98211.34
2023-03-13T04:00:36.152Z,98205.31
2023-03-13T04:03:02.982Z,98205.25
2023-03-13T04:05:30.049Z,98205.09
2023-03-13T04:07:56.815Z,98200.84
2023-03-13T04:10:23.584Z,98213.47
2023-03-13T04:12:50.338Z,98203.28
2023-03-13T04:15:17.231Z,98198.91
2023-03-13T04:17:43.973Z,98211.56
2023-03-13T04:20:13.551Z,98206.28
2023-03-13T04:22:42.116Z,98206.19
2023-03-13T04:25:09.960Z,98211.16
2023-03-13T04:27:37.141Z,98200.81
2023-03-13T04:30:04.879Z,98199.88
2023-03-13T04:32:31.726Z,98191.19
2023-03-13T04:34:58.825Z,98180.94
2023-03-13T04:37:25.777Z,98189.22
2023-03-13T04:39:52.534Z,98185.72
2023-03-13T04:42:19.343Z,98172.84
2023-03-13T04:44:46.055Z,98183.66
2023-03-13T04:47:12.858Z,98175.06
2023-03-13T04:49:39.668Z,98150.41
2023-03-13T04:52:07.133Z,98152.84
2023-03-13T04:54:33.885Z,98157.53
2023-03-13T04:57:00.704Z,98145.31
2023-03-13T04:59:27.808Z,98155.91
2023-03-13T05:01:54.532Z,98163.69
2023-03-13T05:04:21.354Z,98151.06
2023-03-13T05:06:48.249Z,98149.41
2023-03-13T05:09:14.981Z,98132.34
2023-03-13T05:11:42.310Z,98134.81
2023-03-13T05:14:11.758Z,98132.22
2023-03-13T05:16:39.234Z,98129.59
2023-03-13T05:19:06.076Z,98119.38
2023-03-13T05:21:32.923Z,98126.16
2023-03-13T05:23:59.696Z,98125.34
2023-03-13T05:26:26.453Z,98113.41
2023-03-13T05:28:53.251Z,98095.56
2023-03-13T05:31:20.205Z,98107.50
2023-03-13T05:33:47.015Z,98092.22
2023-03-13T05:36:13.705Z,98087.13
2023-03-13T05:38:40.523Z,98103.34
2023-03-13T05:41:07.248Z,98121.25
2023-03-13T05:43:33.990Z,98117.88
2023-03-13T05:46:00.809Z,98114.50
2023-03-13T05:48:27.602Z,98136.59
2023-03-13T05:50:54.351Z,98117.88
2023-03-13T05:53:21.117Z,98149.31
2023-03-13T05:55:47.860Z,98151.78
2023-03-13T05:58:14.598Z,98162.66
2023-03-13T06:00:43.568Z,98161.66
2023-03-13T06:03:12.497Z,98147.03
2023-03-13T06:05:40.669Z,98137.53
2023-03-13T06:08:07.383Z,98137.38
2023-03-13T06:10:34.104Z,98154.25
2023-03-13T06:13:13.728Z,98143.91
2023-03-13T06:15:53.631Z,98155.75
2023-03-13T06:18:20.482Z,98162.44
2023-03-13T06:20:49.794Z,98169.13
2023-03-13T06:23:17.226Z,98146.84
2023-03-13T06:25:48.416Z,98145.06
2023-03-13T06:28:16.036Z,98141.56
2023-03-13T06:30:43.421Z,98152.50
2023-03-13T06:33:10.512Z,98142.19
2023-03-13T06:35:55.143Z,98151.50
2023-03-13T06:38:24.889Z,98127.59
2023-03-13T06:40:51.716Z,98163.97
2023-03-13T06:43:19.242Z,98160.53
2023-03-13T06:45:46.603Z,98148.53
2023-03-13T06:48:13.759Z,98137.38
2023-03-13T06:50:42.150Z,98148.41
2023-03-13T06:53:20.369Z,98163.69
2023-03-13T06:55:49.081Z,98161.06
2023-03-13T06:58:31.133Z,98155.97
2023-03-13T07:01:00.897Z,98160.25
2023-03-13T07:03:27.698Z,98164.47
2023-03-13T07:05:58.964Z,98149.09
2023-03-13T07:08:27.252Z,98153.34
2023-03-13T07:11:09.136Z,98147.28
2023-03-13T07:13:37.016Z,98150.69
2023-03-13T07:16:13.722Z,98137.69
2023-03-13T07:18:44.895Z,98128.09
2023-03-13T07:21:13.350Z,98122.72
2023-03-13T07:23:40.705Z,98107.94
2023-03-13T07:26:12.864Z,98108.47
2023-03-13T07:28:40.016Z,98103.22
2023-03-13T07:31:20.800Z,98108.94
2023-03-13T07:33:48.752Z,98101.13
2023-03-13T07:36:16.525Z,98103.38
2023-03-13T07:38:43.793Z,98113.28
2023-03-13T07:41:15.709Z,98089.19
2023-03-13T07:43:42.499Z,98112.84
2023-03-13T07:46:14.210Z,98113.44
2023-03-13T07:48:43.255Z,98099.69
2023-03-13T07:51:30.286Z,98114.97
2023-03-13T07:54:03.886Z,98101.38
2023-03-13T07:56:30.740Z,98089.47
2023-03-13T07:58:57.470Z,98098.81
2023-03-13T08:01:30.449Z,98104.75
2023-03-13T08:03:58.845Z,98108.22
2023-03-13T08:06:29.352Z,98104.81
2023-03-13T08:08:59.779Z,98091.91
2023-03-13T08:11:28.772Z,98114.66
2023-03-13T08:13:57.474Z,98098.28
2023-03-13T08:16:31.779Z,98106.53
2023-03-13T08:19:00.389Z,98115.78
2023-03-13T08:21:35.535Z,98106.16
2023-03-13T08:24:06.971Z,98108.72
2023-03-13T08:26:36.898Z,98108.81
2023-03-13T08:29:13.601Z,98112.25
2023-03-13T08:31:49.231Z,98109.84
2023-03-13T08:34:18.585Z,98105.88
2023-03-13T08:36:46.042Z,98107.69
2023-03-13T08:39:17.948Z,98107.06
2023-03-13T08:41:45.107Z,98105.56
2023-03-13T08:44:15.867Z,98101.38
2023-03-13T08:46:44.032Z,98091.22
2023-03-13T08:49:12.154Z,98088.81
2023-03-13T08:51:39.551Z,98096.53
2023-03-13T08:54:06.568Z,98101.53
2023-03-13T08:56:34.786Z,98100.47
2023-03-13T08:59:05.178Z,98100.19
2023-03-13T09:01:35.258Z,98096.78
2023-03-13T09:04:04.743Z,98088.97
2023-03-13T09:06:34.172Z,98094.91
2023-03-13T09:09:01.787Z,98086.25
2023-03-13T09:11:28.709Z,98096.19
2023-03-13T09:13:59.237Z,98080.81
2023-03-13T09:16:29.745Z,98080.22
2023-03-13T09:18:57.917Z,98085.06
2023-03-13T09:21:29.157Z,98081.00
2023-03-13T09:23:57.238Z,98089.34
2023-03-13T09:26:24.633Z,98081.56
2023-03-13T09:28:55.594Z,98079.81
2023-03-13T09:31:31.222Z,98073.03
2023-03-13T09:33:58.744Z,98069.66
2023-03-13T09:36:26.731Z,98057.22
2023-03-13T09:38:57.533Z,98044.88
2023-03-13T09:41:33.964Z,98053.75
2023-03-13T09:44:31.765Z,98056.50
2023-03-13T09:47:42.958Z,98033.78
2023-03-13T09:50:25.411Z,98035.28
2023-03-13T09:53:01.432Z,98022.09
2023-03-13T09:55:34.782Z,98002.66
2023-03-13T09:58:24.461Z,98024.19
2023-03-13T10:01:02.477Z,98024.28
2023-03-13T10:03:44.656Z,98016.88
2023-03-13T10:06:21.141Z,98020.28
2023-03-13T10:08:47.925Z,98021.84
2023-03-13T10:11:29.502Z,98029.97
2023-03-13T10:14:09.701Z,98006.63
2023-03-13T10:17:11.728Z,98015.59
2023-03-13T10:19:43.473Z,98015.97
2023-03-13T10:22:24.237Z,98006.06
2023-03-13T10:25:24.576Z,98000.81
2023-03-13T10:27:51.681Z,98012.16
2023-03-13T10:30:39.425Z,97996.78
2023-03-13T10:33:11.885Z,97986.97
2023-03-13T10:35:43.581Z,97984.78
2023-03-13T10:38:28.545Z,97982.19
2023-03-13T10:41:03.113Z,97974.13
2023-03-13T10:43:30.165Z,97961.03
2023-03-13T10:45:56.905Z,97960.34
2023-03-13T10:48:30.361Z,97964.28
2023-03-13T10:50:57.630Z,97950.13
2023-03-13T10:53:30.507Z,97933.75
2023-03-13T10:56:15.822Z,97950.63
2023-03-13T10:58:47.048Z,97938.91
2023-03-13T11:01:31.854Z,97956.84
2023-03-13T11:04:02.212Z,97952.69
2023-03-13T11:06:35.149Z,97896.75
2023-03-13T11:09:16.476Z,97939.13
2023-03-13T11:12:06.822Z,97937.84
2023-03-13T11:14:34.882Z,97934.94
2023-03-13T11:17:31.961Z,97922.28
2023-03-13T11:20:06.119Z,97906.22
2023-03-13T11:22:47.850Z,97927.31
2023-03-13T11:25:22.929Z,97903.16
2023-03-13T11:28:17.185Z,97885.03
2023-03-13T11:31:01.899Z,97889.31
2023-03-13T11:33:53.341Z,97881.78
2023-03-13T11:36:41.197Z,97889.44
2023-03-13T11:39:41.855Z,97882.81
2023-03-13T11:42:36.035Z,97871.44
2023-03-13T11:45:55.451Z,97874.78
2023-03-13T11:49:11.442Z,97897.56
2023-03-13T11:52:04.802Z,97899.13
2023-03-13T11:55:02.692Z,97882.88
2023-03-13T11:57:37.815Z,97885.09
2023-03-13T12:00:23.014Z,97874.69
2023-03-13T12:03:23.046Z,97863.91
2023-03-13T12:05:55.388Z,97844.91
2023-03-13T12:08:32.259Z,97853.09
2023-03-13T12:11:20.197Z,97846.88
2023-03-13T12:14:13.519Z,97843.81
2023-03-13T12:16:52.372Z,97846.84
2023-03-13T12:19:40.945Z,97825.75
2023-03-13T12:22:20.839Z,97827.50
2023-03-13T12:25:05.113Z,97823.34
2023-03-13T12:27:47.019Z,97820.22
2023-03-13T12:30:52.565Z,97813.09
2023-03-13T12:33:37.855Z,97813.44
2023-03-13T12:36:29.322Z,97815.09
2023-03-13T12:39:20.703Z,97799.56
2023-03-13T12:42:09.158Z,97823.03
2023-03-13T12:44:36.336Z,97812.03
2023-03-13T12:47:45.668Z,97814.00
2023-03-13T12:50:45.070Z,97803.81
2023-03-13T12:53:55.339Z,97780.88
2023-03-13T12:56:36.046Z,97787.78
2023-03-13T12:59:23.080Z,97775.13
2023-03-13T13:01:54.878Z,97762.91
2023-03-13T13:04:27.800Z,97760.06
2023-03-13T13:07:07.343Z,97784.16
2023-03-13T13:09:39.652Z,97773.50
2023-03-13T13:12:25.152Z,97773.03
2023-03-13T13:14:51.986Z,97792.78
2023-03-13T13:17:46.244Z,97773.72
2023-03-13T13:20:37.567Z,97771.25
2023-03-13T13:23:33.990Z,97762.25
2023-03-13T13:26:33.776Z,97762.00
2023-03-13T13:29:22.285Z,97769.31
2023-03-13T13:31:51.926Z,97764.66
2023-03-13T13:34:30.862Z,97745.41
2023-03-13T13:37:23.502Z,97750.31
2023-03-13T13:39:53.730Z,97751.97
2023-03-13T13:42:45.463Z,97730.53
2023-03-13T13:45:14.942Z,97733.44
2023-03-13T13:47:48.834Z,97728.72
2023-03-13T13:50:28.064Z,97709.53
2023-03-13T13:53:31.076Z,97703.91
2023-03-13T13:55:58.683Z,97713.22
2023-03-13T13:58:30.901Z,97707.88
2023-03-13T14:01:04.260Z,97695.63
2023-03-13T14:03:33.260Z,97698.69
2023-03-13T14:06:19.376Z,97721.72
2023-03-13T14:08:54.253Z,97709.78
2023-03-13T14:11:34.133Z,97701.81
2023-03-13T14:14:15.703Z,97693.13
2023-03-13T14:16:52.230Z,97697.97
2023-03-13T14:19:33.962Z,97681.81
2023-03-13T14:22:07.567Z,97688.31
2023-03-13T14:24:35.648Z,97680.31
2023-03-13T14:27:15.080Z,97653.66
2023-03-13T14:29:41.878Z,97675.78
2023-03-13T14:32:09.078Z,97674.53
2023-03-13T14:34:35.972Z,97679.91
2023-03-13T14:37:17.719Z,97678.47
2023-03-13T14:39:48.554Z,97657.03
2023-03-13T14:42:18.162Z,97653.25
2023-03-13T14:44:49.587Z,97658.00
2023-03-13T14:47:31.697Z,97650.41
2023-03-13T14:50:11.850Z,97664.22
2023-03-13T14:52:46.261Z,97645.09
2023-03-13T14:55:22.190Z,97643.03
2023-03-13T14:58:00.925Z,97637.50
2023-03-13T15:00:38.024Z,97633.41
2023-03-13T15:03:17.114Z,97624.97
2023-03-13T15:05:47.193Z,97625.91
2023-03-13T15:08:21.579Z,97624.16
2023-03-13T15:10:49.789Z,97621.72
2023-03-13T15:13:37.012Z,97616.69
2023-03-13T15:16:20.027Z,97622.13
2023-03-13T15:18:48.174Z,97609.50
2023-03-13T15:21:15.347Z,97599.34
2023-03-13T15:23:43.183Z,97598.50
2023-03-13T15:26:10.663Z,97592.56
2023-03-13T15:28:37.374Z,97593.50
2023-03-13T15:31:04.427Z,97584.16
2023-03-13T15:33:31.531Z,97583.22
2023-03-13T15:35:58.414Z,97580.66
2023-03-13T15:38:27.842Z,97567.84
2023-03-13T15:40:54.951Z,97547.53
2023-03-13T15:43:23.492Z,97557.81
2023-03-13T15:45:51.960Z,97542.28
2023-03-13T15:48:26.076Z,97540.75
2023-03-13T15:50:58.393Z,97531.53
2023-03-13T15:53:36.688Z,97524.88
2023-03-13T15:56:18.358Z,97512.34
2023-03-13T15:58:47.113Z,97516.97
2023-03-13T16:01:16.760Z,97502.72
2023-03-13T16:03:43.855Z,97494.50
2023-03-13T16:06:21.288Z,97478.84
2023-03-13T16:08:48.120Z,97489.81
2023-03-13T16:11:17.091Z,97483.41
2023-03-13T16:13:44.133Z,97490.00
2023-03-13T16:16:24.607Z,97489.66
2023-03-13T16:18:52.800Z,97471.53
2023-03-13T16:21:24.151Z,97473.78
2023-03-13T16:23:50.946Z,97479.53
2023-03-13T16:26:27.694Z,97483.28
2023-03-13T16:28:55.396Z,97490.75
2023-03-13T16:31:29.198Z,97501.38
2023-03-13T16:33:57.762Z,97498.50
2023-03-13T16:36:31.614Z,97500.53
2023-03-13T16:39:01.003Z,97478.75
2023-03-13T16:41:29.135Z,97493.63
2023-03-13T16:43:56.993Z,97490.59
2023-03-13T16:46:29.930Z,97486.69
2023-03-13T16:48:58.381Z,97481.97
2023-03-13T16:51:27.585Z,97475.41
2023-03-13T16:53:56.589Z,97484.19
2023-03-13T16:56:35.204Z,97479.38
2023-03-13T16:59:14.177Z,97484.75
2023-03-13T17:01:40.937Z,97479.84
2023-03-13T17:04:08.040Z,97467.13
2023-03-13T17:06:42.392Z,97465.63
2023-03-13T17:09:16.728Z,97462.31
2023-03-13T17:11:44.221Z,97458.22
2023-03-13T17:14:11.341Z,97451.56
2023-03-13T17:16:46.057Z,97432.91
2023-03-13T17:19:16.944Z,97445.78
2023-03-13T17:21:44.022Z,97440.25
2023-03-13T17:24:10.896Z,97447.22
2023-03-13T17:26:39.639Z,97442.91
2023-03-13T17:29:12.353Z,97426.13
2023-03-13T17:31:39.784Z,97422.00
2023-03-13T17:34:08.411Z,97422.91
2023-03-13T17:36:36.143Z,97412.06
2023-03-13T17:39:06.505Z,97412.25
2023-03-13T17:41:35.053Z,97412.47
2023-03-13T17:44:03.640Z,97417.00
2023-03-13T17:46:33.929Z,97429.25
2023-03-13T17:49:01.324Z,97427.03
2023-03-13T17:51:31.700Z,97439.91
2023-03-13T17:53:59.429Z,97442.03
2023-03-13T17:56:36.271Z,97436.59
2023-03-13T17:59:04.299Z,97437.47
2023-03-13T18:01:33.731Z,97435.47
2023-03-13T18:04:01.267Z,97428.97
2023-03-13T18:06:31.810Z,97435.06
2023-03-13T18:09:07.740Z,97420.03
2023-03-13T18:11:38.718Z,97427.97
2023-03-13T18:14:06.398Z,97430.63
2023-03-13T18:16:47.562Z,97435.81
2023-03-13T18:19:16.139Z,97428.34
2023-03-13T18:21:44.851Z,97414.03
2023-03-13T18:24:13.398Z,97420.03
2023-03-13T18:26:42.898Z,97429.53
2023-03-13T18:29:26.500Z,97412.66
2023-03-13T18:31:55.767Z,97423.84
2023-03-13T18:34:24.698Z,97411.28
2023-03-13T18:36:52.074Z,97411.38
2023-03-13T18:39:20.113Z,97411.47
2023-03-13T18:41:49.021Z,97417.47
2023-03-13T18:44:18.819Z,97414.94
2023-03-13T18:46:45.853Z,97413.47
2023-03-13T18:49:23.341Z,97400.81
2023-03-13T18:51:52.936Z,97409.47
2023-03-13T18:54:20.339Z,97401.16
2023-03-13T18:56:47.843Z,97402.97
2023-03-13T18:59:20.800Z,97400.50
2023-03-13T19:01:48.587Z,97389.66
2023-03-13T19:04:16.402Z,97377.16
2023-03-13T19:06:45.750Z,97393.47
2023-03-13T19:09:42.290Z,97389.38
2023-03-13T19:12:10.910Z,97377.78
2023-03-13T19:14:37.725Z,97366.81
2023-03-13T19:17:12.047Z,97367.00
2023-03-13T19:19:38.816Z,97367.16
2023-03-13T19:22:05.528Z,97374.91
2023-03-13T19:24:32.266Z,97365.81
2023-03-13T19:26:59.830Z,97356.59
2023-03-13T19:29:28.778Z,97344.81
2023-03-13T19:31:55.998Z,97345.91
2023-03-13T19:34:22.860Z,97341.91
2023-03-13T19:36:50.257Z,97337.91
2023-03-13T19:39:23.519Z,97326.94
2023-03-13T19:41:51.798Z,97323.84
2023-03-13T19:44:20.417Z,97332.59
2023-03-13T19:46:47.938Z,97340.41
2023-03-13T19:49:19.119Z,97344.03
2023-03-13T19:51:46.803Z,97343.41
2023-03-13T19:54:14.227Z,97350.47
2023-03-13T19:56:44.194Z,97350.72
2023-03-13T19:59:19.915Z,97371.22
2023-03-13T20:01:47.040Z,97370.66
2023-03-13T20:04:14.637Z,97360.72
2023-03-13T20:06:43.284Z,97367.72
2023-03-13T20:09:14.777Z,97366.97
2023-03-13T20:11:41.543Z,97365.59
2023-03-13T20:14:09.537Z,97353.03
2023-03-13T20:16:37.344Z,97337.97
2023-03-13T20:19:04.443Z,97340.75
2023-03-13T20:21:36.230Z,97346.84
2023-03-13T20:24:03.464Z,97344.53
2023-03-13T20:26:30.612Z,97357.53
2023-03-13T20:28:57.765Z,97367.06
2023-03-13T20:31:31.545Z,97368.94
2023-03-13T20:33:59.152Z,97375.13
2023-03-13T20:36:26.751Z,97379.53
2023-03-13T20:38:53.810Z,97366.09
2023-03-13T20:41:24.570Z,97360.25
2023-03-13T20:43:52.242Z,97373.97
2023-03-13T20:46:19.607Z,97363.09
2023-03-13T20:48:46.380Z,97380.22
2023-03-13T20:51:13.269Z,97371.91
2023-03-13T20:53:42.065Z,97373.78
2023-03-13T20:56:10.756Z,97366.41
2023-03-13T20:58:38.235Z,97366.50
2023-03-13T21:01:07.128Z,97375.91
2023-03-13T21:03:35.777Z,97380.34
2023-03-13T21:06:15.406Z,97368.59
2023-03-13T21:08:43.722Z,97368.75
2023-03-13T21:11:20.087Z,97340.84
2023-03-13T21:13:47.747Z,97353.78
2023-03-13T21:16:16.364Z,97366.59
2023-03-13T21:18:43.366Z,97371.78
2023-03-13T21:21:16.940Z,97367.66
2023-03-13T21:23:44.651Z,97358.47
2023-03-13T21:26:11.854Z,97344.19
2023-03-13T21:28:40.126Z,97350.16
2023-03-13T21:31:19.161Z,97327.34
2023-03-13T21:33:47.198Z,97355.50
2023-03-13T21:36:17.703Z,97342.84
2023-03-13T21:38:44.947Z,97336.13
2023-03-13T21:41:15.710Z,97334.47
2023-03-13T21:43:43.254Z,97339.66
2023-03-13T21:46:18.174Z,97353.28
2023-03-13T21:51:12.784Z,97387.31
2023-03-13T21:53:41.905Z,97364.50
2023-03-13T21:56:09.302Z,97370.50
2023-03-13T21:58:36.030Z,97361.22
2023-03-13T22:01:02.784Z,97363.84
2023-03-13T22:03:31.679Z,97371.47
2023-03-13T22:05:58.570Z,97349.53
2023-03-13T22:08:25.359Z,97359.72
2023-03-13T22:10:54.945Z,97370.78
2023-03-13T22:13:22.103Z,97391.31
2023-03-13T22:15:50.388Z,97370.88
2023-03-13T22:18:17.660Z,97387.13
2023-03-13T22:20:44.685Z,97387.13
2023-03-13T22:23:12.528Z,97384.63
2023-03-13T22:25:42.222Z,97378.72
2023-03-13T22:28:11.070Z,97368.69
2023-03-13T22:30:39.392Z,97356.81
2023-03-13T22:33:07.878Z,97368.69
2023-03-13T22:35:37.487Z,97360.16
2023-03-13T22:38:05.018Z,97361.06
2023-03-13T22:40:32.684Z,97354.25
2023-03-13T22:42:59.592Z,97350.78
2023-03-13T22:45:26.513Z,97342.44
2023-03-13T22:47:53.439Z,97334.03
2023-03-13T22:50:25.468Z,97314.53
2023-03-13T22:52:53.495Z,97317.97
2023-03-13T22:55:20.416Z,97312.00
2023-03-13T22:57:47.134Z,97319.53
2023-03-13T23:00:14.764Z,97300.75
2023-03-13T23:02:41.501Z,97312.38
2023-03-13T23:05:08.891Z,97330.00
2023-03-13T23:07:38.616Z,97375.59
2023-03-13T23:10:07.352Z,97357.56
2023-03-13T23:12:34.402Z,97366.66
2023-03-13T23:15:01.983Z,97353.78
2023-03-13T23:17:34.061Z,97341.81
2023-03-13T23:20:01.188Z,97317.00
2023-03-13T23:22:32.671Z,97294.84
2023-03-13T23:24:59.512Z,97332.03
2023-03-13T23:27:27.046Z,97316.69
2023-03-13T23:29:54.150Z,97322.53
2023-03-13T23:32:20.914Z,97312.34
2023-03-13T23:34:47.637Z,97308.97
2023-03-13T23:37:14.359Z,97305.59
2023-03-13T23:39:41.118Z,97299.66
2023-03-13T23:42:08.135Z,97297.31
2023-03-13T23:44:34.924Z,97291.50
2023-03-13T23:47:01.684Z,97283.91
2023-03-13T23:49:28.501Z,97269.63
2023-03-13T23:51:55.204Z,97262.81
2023-03-13T23:54:23.065Z,97240.06
2023-03-13T23:56:49.840Z,97232.44
2023-03-13T23:59:16.599Z,97226.53
